createdAt,value
2018-04-19T16:29:30.777Z,40.73
2018-04-19T16:31:57.294Z,41.09
2018-04-19T16:34:24.517Z,40.75
2018-04-19T16:37:11.149Z,40.70
2018-04-19T16:39:38.397Z,41.79
2018-04-19T16:42:04.969Z,41.36
2018-04-19T16:44:34.008Z,40.03
2018-04-19T16:47:01.655Z,40.73
2018-04-19T16:49:29.597Z,40.70
2018-04-19T16:51:56.087Z,40.27
2018-04-19T16:54:23.301Z,39.31
2018-04-19T16:56:49.879Z,38.21
2018-04-19T16:59:17.384Z,38.24
2018-04-19T17:01:44.033Z,38.03
2018-04-19T17:04:10.485Z,37.53
2018-04-19T17:06:38.118Z,37.33
2018-04-19T17:09:06.002Z,37.64
2018-04-19T17:11:32.587Z,37.43
2018-04-19T17:14:00.351Z,37.31
2018-04-19T17:16:26.921Z,36.34
2018-04-19T17:18:53.368Z,36.14
2018-04-19T17:21:19.859Z,35.88
2018-04-19T17:23:46.473Z,33.56
2018-04-19T17:26:13.862Z,32.29
2018-04-19T17:28:40.571Z,31.02
2018-04-19T17:31:07.811Z,29.85
2018-04-19T17:33:35.165Z,29.42
2018-04-19T17:36:02.221Z,29.07
2018-04-19T17:38:29.501Z,28.71
2018-04-19T17:40:56.156Z,28.66
2018-04-19T17:43:22.742Z,28.40
2018-04-19T17:45:56.176Z,28.02
2018-04-19T17:48:22.650Z,27.86
2018-04-19T17:50:49.366Z,27.88
2018-04-19T17:53:15.835Z,27.58
2018-04-19T17:55:42.496Z,27.42
2018-04-19T17:58:09.768Z,26.94
2018-04-19T18:00:36.375Z,26.84
2018-04-19T18:03:03.044Z,26.80
2018-04-19T18:05:30.244Z,26.48
2018-04-19T18:07:57.595Z,26.22
2018-04-19T18:10:24.292Z,25.95
2018-04-19T18:12:50.877Z,26.02
2018-04-19T18:15:17.379Z,25.89
2018-04-19T18:17:43.953Z,25.65
2018-04-19T18:20:10.373Z,25.32
2018-04-19T18:22:36.980Z,25.07
2018-04-19T18:25:03.579Z,24.99
2018-04-19T18:27:30.795Z,24.74
2018-04-19T18:29:57.720Z,24.68
2018-04-19T18:32:24.223Z,24.75
2018-04-19T18:34:51.799Z,24.72
2018-04-19T18:37:18.332Z,24.47
2018-04-19T18:39:44.798Z,24.18
2018-04-19T18:42:11.808Z,24.17
2018-04-19T18:44:38.345Z,24.02
2018-04-19T18:47:04.971Z,23.87
2018-04-19T18:49:32.183Z,23.85
2018-04-19T18:51:58.680Z,23.62
2018-04-19T18:54:25.221Z,23.54
2018-04-19T18:56:51.683Z,23.48
2018-04-19T18:59:18.175Z,23.32
2018-04-19T19:01:46.177Z,23.19
2018-04-19T19:04:12.655Z,23.06
2018-04-19T19:06:39.861Z,23.00
2018-04-19T19:09:06.726Z,23.00
2018-04-19T19:11:33.528Z,22.94
2018-04-19T19:13:59.996Z,22.91
2018-04-19T19:16:26.506Z,22.75
2018-04-19T19:19:11.518Z,22.70
2018-04-19T19:21:38.045Z,22.62
2018-04-19T19:24:04.551Z,22.58
2018-04-19T19:26:30.989Z,22.46
2018-04-19T19:28:57.663Z,22.46
2018-04-19T19:31:24.902Z,22.46
2018-04-19T19:33:51.690Z,22.37
2018-04-19T19:36:18.355Z,22.33
2018-04-19T19:38:51.958Z,22.31
2018-04-19T19:41:18.407Z,22.34
2018-04-19T19:43:44.972Z,22.22
2018-04-19T19:46:12.160Z,22.12
2018-04-19T19:48:38.705Z,22.11
2018-04-19T19:51:05.161Z,22.03
2018-04-19T19:53:31.731Z,21.91
2018-04-19T19:55:58.993Z,21.82
2018-04-19T19:58:25.542Z,21.69
2018-04-19T20:00:52.986Z,21.68
2018-04-19T20:03:19.661Z,21.59
2018-04-19T20:05:46.717Z,21.52
2018-04-19T20:08:14.734Z,21.42
2018-04-19T20:10:41.522Z,21.34
2018-04-19T20:13:08.361Z,21.26
2018-04-19T20:15:35.810Z,21.16
2018-04-19T20:18:02.362Z,21.13
2018-04-19T20:20:29.077Z,21.03
2018-04-19T20:22:55.519Z,20.89
2018-04-19T20:25:21.984Z,20.97
2018-04-19T20:27:48.466Z,20.90
2018-04-19T20:30:15.028Z,20.87
2018-04-19T20:32:41.542Z,20.87
2018-04-19T20:35:08.311Z,20.75
2018-04-19T20:37:35.298Z,20.69
2018-04-19T20:40:02.804Z,20.66
2018-04-19T20:42:29.318Z,20.55
2018-04-19T20:44:55.807Z,20.43
2018-04-19T20:47:22.400Z,20.37
2018-04-19T20:49:49.068Z,20.29
2018-04-19T20:52:15.655Z,20.31
2018-04-19T20:54:42.214Z,20.22
2018-04-19T20:57:09.466Z,20.06
2018-04-19T20:59:35.935Z,20.06
2018-04-19T21:02:02.449Z,20.05
2018-04-19T21:04:29.020Z,20.00
2018-04-19T21:06:56.671Z,19.99
2018-04-19T21:09:23.328Z,19.91
2018-04-19T21:11:50.880Z,19.85
2018-04-19T21:14:18.720Z,19.77
2018-04-19T21:16:45.270Z,19.69
2018-04-19T21:19:11.713Z,19.69
2018-04-19T21:21:41.030Z,19.84
2018-04-19T21:24:07.602Z,19.64
2018-04-19T21:26:34.131Z,19.48
2018-04-19T21:29:00.668Z,19.57
2018-04-19T21:31:27.168Z,19.60
2018-04-19T21:33:53.797Z,19.45
2018-04-19T21:36:21.125Z,19.36
2018-04-19T21:38:47.633Z,19.24
2018-04-19T21:41:14.067Z,19.18
2018-04-19T21:43:40.682Z,19.13
2018-04-19T21:46:07.147Z,18.90
2018-04-19T21:48:33.597Z,18.96
2018-04-19T21:51:00.012Z,18.91
2018-04-19T21:53:26.481Z,18.77
2018-04-19T21:55:53.840Z,18.76
2018-04-19T21:58:21.159Z,18.69
2018-04-19T22:00:48.061Z,18.59
2018-04-19T22:03:14.476Z,18.55
2018-04-19T22:05:41.686Z,18.50
2018-04-19T22:08:08.196Z,18.49
2018-04-19T22:10:35.250Z,18.54
2018-04-19T22:13:01.664Z,18.38
2018-04-19T22:15:28.130Z,18.36
2018-04-19T22:17:54.763Z,18.24
2018-04-19T22:20:21.185Z,18.15
2018-04-19T22:22:47.667Z,18.02
2018-04-19T22:25:14.104Z,17.90
2018-04-19T22:27:41.295Z,17.73
2018-04-19T22:30:07.806Z,17.63
2018-04-19T22:32:34.280Z,17.62
2018-04-19T22:35:00.757Z,17.48
2018-04-19T22:37:27.210Z,17.47
2018-04-19T22:39:53.661Z,17.36
2018-04-19T22:42:20.086Z,17.31
2018-04-19T22:44:46.574Z,17.23
2018-04-19T22:47:13.017Z,17.30
2018-04-19T22:49:39.502Z,17.38
2018-04-19T22:52:06.097Z,17.42
2018-04-19T22:54:33.291Z,17.32
2018-04-19T22:56:59.760Z,17.18
2018-04-19T22:59:26.435Z,17.07
2018-04-19T23:01:53.129Z,17.05
2018-04-19T23:04:19.560Z,16.94
2018-04-19T23:06:46.128Z,16.90
2018-04-19T23:09:13.247Z,16.79
2018-04-19T23:11:39.696Z,16.74
2018-04-19T23:14:06.657Z,16.74
2018-04-19T23:16:33.280Z,16.94
2018-04-19T23:18:59.775Z,16.65
2018-04-19T23:21:26.247Z,16.67
2018-04-19T23:23:53.419Z,16.55
2018-04-19T23:26:20.651Z,16.55
2018-04-19T23:28:47.219Z,16.48
2018-04-19T23:31:13.973Z,16.54
2018-04-19T23:33:40.499Z,16.58
2018-04-19T23:36:07.009Z,16.54
2018-04-19T23:38:34.240Z,16.33
2018-04-19T23:41:00.709Z,16.12
2018-04-19T23:43:27.572Z,15.92
2018-04-19T23:45:54.033Z,15.82
2018-04-19T23:48:20.439Z,15.82
2018-04-19T23:50:46.934Z,15.86
2018-04-19T23:53:14.126Z,15.83
2018-04-19T23:55:40.555Z,15.93
2018-04-19T23:58:07.302Z,15.92
